sensor_id;sensor_type;location;lat;lon;timestamp;temperature;humidity
53264;DHT22;39153;52.680;6.172;2022-09-09T00:00:19;15.60;99.90
53264;DHT22;39153;52.680;6.172;2022-09-09T00:02:53;15.70;99.90
53264;DHT22;39153;52.680;6.172;2022-09-09T00:05:44;15.70;99.90
53264;DHT22;39153;52.680;6.172;2022-09-09T00:08:19;15.70;99.90
53264;DHT22;39153;52.680;6.172;2022-09-09T00:10:50;15.60;99.90
53264;DHT22;39153;52.680;6.172;2022-09-09T00:13:22;15.70;99.90
53264;DHT22;39153;52.680;6.172;2022-09-09T00:19:08;15.70;99.90
53264;DHT22;39153;52.680;6.172;2022-09-09T00:21:53;15.70;99.90
53264;DHT22;39153;52.680;6.172;2022-09-09T00:24:42;15.60;99.90
53264;DHT22;39153;52.680;6.172;2022-09-09T00:27:40;15.60;99.90
53264;DHT22;39153;52.680;6.172;2022-09-09T00:32:39;15.60;99.90
53264;DHT22;39153;52.680;6.172;2022-09-09T00:35:31;15.60;99.90
53264;DHT22;39153;52.680;6.172;2022-09-09T00:38:01;15.50;99.90
53264;DHT22;39153;52.680;6.172;2022-09-09T00:40:34;15.50;99.90
53264;DHT22;39153;52.680;6.172;2022-09-09T00:43:29;15.70;99.90
53264;DHT22;39153;52.680;6.172;2022-09-09T00:46:24;15.60;99.90
53264;DHT22;39153;52.680;6.172;2022-09-09T00:49:20;15.70;99.90
53264;DHT22;39153;52.680;6.172;2022-09-09T00:57:32;15.60;99.90
53264;DHT22;39153;52.680;6.172;2022-09-09T01:08:39;15.40;99.90
53264;DHT22;39153;52.680;6.172;2022-09-09T01:11:14;15.60;99.90
53264;DHT22;39153;52.680;6.172;2022-09-09T01:13:42;15.40;99.90
53264;DHT22;39153;52.680;6.172;2022-09-09T01:16:12;15.60;99.90
53264;DHT22;39153;52.680;6.172;2022-09-09T01:18:44;15.60;99.90
53264;DHT22;39153;52.680;6.172;2022-09-09T01:21:42;15.50;99.90
53264;DHT22;39153;52.680;6.172;2022-09-09T01:26:54;15.50;99.90
53264;DHT22;39153;52.680;6.172;2022-09-09T01:29:22;15.60;99.90
53264;DHT22;39153;52.680;6.172;2022-09-09T01:32:00;15.40;99.90
53264;DHT22;39153;52.680;6.172;2022-09-09T01:34:31;15.50;99.90
53264;DHT22;39153;52.680;6.172;2022-09-09T01:37:17;15.50;99.90
53264;DHT22;39153;52.680;6.172;2022-09-09T01:39:43;15.50;99.90
53264;DHT22;39153;52.680;6.172;2022-09-09T01:42:13;15.30;99.90
53264;DHT22;39153;52.680;6.172;2022-09-09T01:44:40;15.40;99.90
53264;DHT22;39153;52.680;6.172;2022-09-09T01:47:06;15.30;99.90
53264;DHT22;39153;52.680;6.172;2022-09-09T01:49:32;15.20;99.90
53264;DHT22;39153;52.680;6.172;2022-09-09T01:52:01;15.30;99.90
53264;DHT22;39153;52.680;6.172;2022-09-09T01:54:29;15.40;99.90
53264;DHT22;39153;52.680;6.172;2022-09-09T02:07:44;15.30;99.90
53264;DHT22;39153;52.680;6.172;2022-09-09T02:10:21;15.40;99.90
53264;DHT22;39153;52.680;6.172;2022-09-09T02:13:04;15.40;99.90
53264;DHT22;39153;52.680;6.172;2022-09-09T02:15:34;15.30;99.90
53264;DHT22;39153;52.680;6.172;2022-09-09T02:18:04;15.30;99.90
53264;DHT22;39153;52.680;6.172;2022-09-09T02:20:32;15.40;99.90
53264;DHT22;39153;52.680;6.172;2022-09-09T02:22:59;15.30;99.90
53264;DHT22;39153;52.680;6.172;2022-09-09T02:25:28;15.30;99.90
53264;DHT22;39153;52.680;6.172;2022-09-09T02:27:55;15.20;99.90
53264;DHT22;39153;52.680;6.172;2022-09-09T02:30:23;15.30;99.90
53264;DHT22;39153;52.680;6.172;2022-09-09T02:32:51;15.30;99.90
53264;DHT22;39153;52.680;6.172;2022-09-09T02:35:21;15.40;99.90
53264;DHT22;39153;52.680;6.172;2022-09-09T02:37:48;15.10;99.90
53264;DHT22;39153;52.680;6.172;2022-09-09T02:40:16;15.10;99.90
53264;DHT22;39153;52.680;6.172;2022-09-09T02:42:43;15.40;99.90
53264;DHT22;39153;52.680;6.172;2022-09-09T02:45:10;15.30;99.90
53264;DHT22;39153;52.680;6.172;2022-09-09T02:48:30;15.20;99.90
53264;DHT22;39153;52.680;6.172;2022-09-09T02:51:15;15.20;99.90
53264;DHT22;39153;52.680;6.172;2022-09-09T02:54:01;15.20;99.90
53264;DHT22;39153;52.680;6.172;2022-09-09T02:56:33;15.20;99.90
53264;DHT22;39153;52.680;6.172;2022-09-09T02:59:04;15.30;99.90
53264;DHT22;39153;52.680;6.172;2022-09-09T03:01:30;15.30;99.90
53264;DHT22;39153;52.680;6.172;2022-09-09T03:03:57;15.10;99.90
53264;DHT22;39153;52.680;6.172;2022-09-09T03:06:22;15.20;99.90
53264;DHT22;39153;52.680;6.172;2022-09-09T03:08:48;15.20;99.90
53264;DHT22;39153;52.680;6.172;2022-09-09T03:11:16;15.30;99.90
53264;DHT22;39153;52.680;6.172;2022-09-09T03:13:41;15.30;99.90
53264;DHT22;39153;52.680;6.172;2022-09-09T03:16:07;15.00;99.90
53264;DHT22;39153;52.680;6.172;2022-09-09T03:18:33;15.00;99.90
53264;DHT22;39153;52.680;6.172;2022-09-09T03:21:00;15.00;99.90
53264;DHT22;39153;52.680;6.172;2022-09-09T03:23:26;14.90;99.90
53264;DHT22;39153;52.680;6.172;2022-09-09T03:25:52;15.00;99.90
53264;DHT22;39153;52.680;6.172;2022-09-09T03:28:19;14.90;99.90
53264;DHT22;39153;52.680;6.172;2022-09-09T03:30:46;15.00;99.90
53264;DHT22;39153;52.680;6.172;2022-09-09T03:33:11;14.80;99.90
53264;DHT22;39153;52.680;6.172;2022-09-09T03:35:38;15.00;99.90
53264;DHT22;39153;52.680;6.172;2022-09-09T03:38:04;14.90;99.90
53264;DHT22;39153;52.680;6.172;2022-09-09T03:40:30;14.90;99.90
53264;DHT22;39153;52.680;6.172;2022-09-09T03:42:56;14.80;99.90
53264;DHT22;39153;52.680;6.172;2022-09-09T03:45:22;14.60;99.90
53264;DHT22;39153;52.680;6.172;2022-09-09T03:47:47;14.60;99.90
53264;DHT22;39153;52.680;6.172;2022-09-09T03:50:13;14.60;99.90
53264;DHT22;39153;52.680;6.172;2022-09-09T03:52:40;14.50;99.90
53264;DHT22;39153;52.680;6.172;2022-09-09T03:55:07;14.70;99.90
53264;DHT22;39153;52.680;6.172;2022-09-09T03:57:35;14.50;99.90
53264;DHT22;39153;52.680;6.172;2022-09-09T04:00:06;14.60;99.90
53264;DHT22;39153;52.680;6.172;2022-09-09T04:02:32;14.70;99.90
53264;DHT22;39153;52.680;6.172;2022-09-09T04:04:58;14.60;99.90
53264;DHT22;39153;52.680;6.172;2022-09-09T04:07:25;14.50;99.90
53264;DHT22;39153;52.680;6.172;2022-09-09T04:09:52;14.40;99.90
53264;DHT22;39153;52.680;6.172;2022-09-09T04:12:19;14.40;99.90
53264;DHT22;39153;52.680;6.172;2022-09-09T04:14:46;14.40;99.90
53264;DHT22;39153;52.680;6.172;2022-09-09T04:17:12;14.40;99.90
53264;DHT22;39153;52.680;6.172;2022-09-09T04:19:37;14.40;99.90
53264;DHT22;39153;52.680;6.172;2022-09-09T04:22:03;14.30;99.90
53264;DHT22;39153;52.680;6.172;2022-09-09T04:24:29;14.40;99.90
53264;DHT22;39153;52.680;6.172;2022-09-09T04:26:55;14.40;99.90
53264;DHT22;39153;52.680;6.172;2022-09-09T04:29:21;14.50;99.90
53264;DHT22;39153;52.680;6.172;2022-09-09T04:31:46;14.30;99.90
53264;DHT22;39153;52.680;6.172;2022-09-09T04:34:12;14.50;99.90
53264;DHT22;39153;52.680;6.172;2022-09-09T04:36:38;14.30;99.90
53264;DHT22;39153;52.680;6.172;2022-09-09T04:39:05;14.50;99.90
53264;DHT22;39153;52.680;6.172;2022-09-09T04:41:30;14.30;99.90
53264;DHT22;39153;52.680;6.172;2022-09-09T04:43:56;14.30;99.90
53264;DHT22;39153;52.680;6.172;2022-09-09T04:46:22;14.50;99.90
53264;DHT22;39153;52.680;6.172;2022-09-09T04:48:49;14.20;99.90
53264;DHT22;39153;52.680;6.172;2022-09-09T04:51:15;14.40;99.90
53264;DHT22;39153;52.680;6.172;2022-09-09T04:53:41;14.40;99.90
53264;DHT22;39153;52.680;6.172;2022-09-09T04:56:10;14.50;99.90
53264;DHT22;39153;52.680;6.172;2022-09-09T04:58:36;14.50;99.90
53264;DHT22;39153;52.680;6.172;2022-09-09T05:01:04;14.40;99.90
53264;DHT22;39153;52.680;6.172;2022-09-09T05:03:30;14.40;99.90
53264;DHT22;39153;52.680;6.172;2022-09-09T05:06:11;14.30;99.90
53264;DHT22;39153;52.680;6.172;2022-09-09T05:08:38;14.10;99.90
53264;DHT22;39153;52.680;6.172;2022-09-09T05:11:17;14.20;99.90
53264;DHT22;39153;52.680;6.172;2022-09-09T05:13:44;14.20;99.90
53264;DHT22;39153;52.680;6.172;2022-09-09T05:16:10;14.30;99.90
53264;DHT22;39153;52.680;6.172;2022-09-09T05:18:40;14.30;99.90
53264;DHT22;39153;52.680;6.172;2022-09-09T05:21:06;14.30;99.90
53264;DHT22;39153;52.680;6.172;2022-09-09T05:23:33;14.10;99.90
53264;DHT22;39153;52.680;6.172;2022-09-09T05:25:59;14.40;99.90
53264;DHT22;39153;52.680;6.172;2022-09-09T05:28:25;14.30;99.90
53264;DHT22;39153;52.680;6.172;2022-09-09T05:30:59;14.30;99.90
53264;DHT22;39153;52.680;6.172;2022-09-09T05:33:26;14.10;99.90
53264;DHT22;39153;52.680;6.172;2022-09-09T05:36:06;14.30;99.90
53264;DHT22;39153;52.680;6.172;2022-09-09T05:38:33;14.10;99.90
53264;DHT22;39153;52.680;6.172;2022-09-09T05:41:01;14.00;99.90
53264;DHT22;39153;52.680;6.172;2022-09-09T05:43:28;14.10;99.90
53264;DHT22;39153;52.680;6.172;2022-09-09T05:46:02;14.00;99.90
53264;DHT22;39153;52.680;6.172;2022-09-09T05:48:30;14.30;99.90
53264;DHT22;39153;52.680;6.172;2022-09-09T05:50:56;14.30;99.90
53264;DHT22;39153;52.680;6.172;2022-09-09T05:53:22;14.30;99.90
53264;DHT22;39153;52.680;6.172;2022-09-09T05:55:48;14.10;99.90
53264;DHT22;39153;52.680;6.172;2022-09-09T05:58:14;14.10;99.90
53264;DHT22;39153;52.680;6.172;2022-09-09T06:00:43;14.30;99.90
53264;DHT22;39153;52.680;6.172;2022-09-09T06:03:12;14.30;99.90
53264;DHT22;39153;52.680;6.172;2022-09-09T06:05:38;14.50;99.90
53264;DHT22;39153;52.680;6.172;2022-09-09T06:08:04;14.30;99.90
53264;DHT22;39153;52.680;6.172;2022-09-09T06:10:29;14.40;99.90
53264;DHT22;39153;52.680;6.172;2022-09-09T06:12:55;14.10;99.90
53264;DHT22;39153;52.680;6.172;2022-09-09T06:15:21;14.20;99.90
53264;DHT22;39153;52.680;6.172;2022-09-09T06:17:46;14.50;99.90
53264;DHT22;39153;52.680;6.172;2022-09-09T06:20:12;14.50;99.90
53264;DHT22;39153;52.680;6.172;2022-09-09T06:22:40;14.40;99.90
53264;DHT22;39153;52.680;6.172;2022-09-09T06:25:08;14.50;99.90
53264;DHT22;39153;52.680;6.172;2022-09-09T06:27:33;14.30;99.90
53264;DHT22;39153;52.680;6.172;2022-09-09T06:29:59;14.60;99.90
53264;DHT22;39153;52.680;6.172;2022-09-09T06:32:25;14.60;99.90
53264;DHT22;39153;52.680;6.172;2022-09-09T06:34:52;14.80;99.90
53264;DHT22;39153;52.680;6.172;2022-09-09T06:37:18;14.80;99.90
53264;DHT22;39153;52.680;6.172;2022-09-09T06:39:44;14.70;99.90
53264;DHT22;39153;52.680;6.172;2022-09-09T06:42:09;14.60;99.90
53264;DHT22;39153;52.680;6.172;2022-09-09T06:44:35;14.50;99.90
53264;DHT22;39153;52.680;6.172;2022-09-09T06:47:01;14.70;99.90
53264;DHT22;39153;52.680;6.172;2022-09-09T06:49:27;14.70;99.90
53264;DHT22;39153;52.680;6.172;2022-09-09T06:51:53;14.50;99.90
53264;DHT22;39153;52.680;6.172;2022-09-09T06:54:19;14.70;99.90
53264;DHT22;39153;52.680;6.172;2022-09-09T06:56:45;14.70;99.90
53264;DHT22;39153;52.680;6.172;2022-09-09T06:59:11;14.70;99.90
53264;DHT22;39153;52.680;6.172;2022-09-09T07:01:39;14.80;99.90
53264;DHT22;39153;52.680;6.172;2022-09-09T07:04:16;15.00;99.90
53264;DHT22;39153;52.680;6.172;2022-09-09T07:06:45;14.80;99.90
53264;DHT22;39153;52.680;6.172;2022-09-09T07:09:13;15.00;99.90
53264;DHT22;39153;52.680;6.172;2022-09-09T07:11:48;15.00;99.90
53264;DHT22;39153;52.680;6.172;2022-09-09T07:14:16;15.00;99.90
53264;DHT22;39153;52.680;6.172;2022-09-09T07:16:43;15.20;99.90
53264;DHT22;39153;52.680;6.172;2022-09-09T07:19:10;15.20;99.90
53264;DHT22;39153;52.680;6.172;2022-09-09T07:21:36;15.20;99.90
53264;DHT22;39153;52.680;6.172;2022-09-09T07:24:02;15.00;99.90
53264;DHT22;39153;52.680;6.172;2022-09-09T07:26:30;15.20;99.90
53264;DHT22;39153;52.680;6.172;2022-09-09T07:28:56;15.20;99.90
53264;DHT22;39153;52.680;6.172;2022-09-09T07:31:34;15.10;99.90
53264;DHT22;39153;52.680;6.172;2022-09-09T07:34:01;15.30;99.90
53264;DHT22;39153;52.680;6.172;2022-09-09T07:36:29;15.30;99.90
53264;DHT22;39153;52.680;6.172;2022-09-09T07:38:57;15.20;99.90
53264;DHT22;39153;52.680;6.172;2022-09-09T07:41:38;15.20;99.90
53264;DHT22;39153;52.680;6.172;2022-09-09T07:44:07;15.20;99.90
53264;DHT22;39153;52.680;6.172;2022-09-09T07:46:34;15.40;99.90
53264;DHT22;39153;52.680;6.172;2022-09-09T07:49:00;15.30;99.90
53264;DHT22;39153;52.680;6.172;2022-09-09T07:51:28;15.30;99.90
53264;DHT22;39153;52.680;6.172;2022-09-09T07:53:57;15.50;99.90
53264;DHT22;39153;52.680;6.172;2022-09-09T07:56:25;15.60;99.90
53264;DHT22;39153;52.680;6.172;2022-09-09T07:58:52;15.60;99.90
53264;DHT22;39153;52.680;6.172;2022-09-09T08:01:33;15.80;99.90
53264;DHT22;39153;52.680;6.172;2022-09-09T08:04:04;15.90;99.90
53264;DHT22;39153;52.680;6.172;2022-09-09T08:06:35;16.00;99.90
53264;DHT22;39153;52.680;6.172;2022-09-09T08:09:00;16.20;99.90
53264;DHT22;39153;52.680;6.172;2022-09-09T08:11:28;16.20;99.90
53264;DHT22;39153;52.680;6.172;2022-09-09T08:13:55;16.30;99.90
53264;DHT22;39153;52.680;6.172;2022-09-09T08:16:26;16.40;99.90
53264;DHT22;39153;52.680;6.172;2022-09-09T08:18:53;16.40;99.90
53264;DHT22;39153;52.680;6.172;2022-09-09T08:21:25;16.60;99.90
53264;DHT22;39153;52.680;6.172;2022-09-09T08:23:53;16.60;99.90
53264;DHT22;39153;52.680;6.172;2022-09-09T08:26:30;16.90;99.90
53264;DHT22;39153;52.680;6.172;2022-09-09T08:28:58;16.90;99.90
53264;DHT22;39153;52.680;6.172;2022-09-09T08:31:25;16.90;99.90
53264;DHT22;39153;52.680;6.172;2022-09-09T08:33:53;16.90;99.90
53264;DHT22;39153;52.680;6.172;2022-09-09T08:36:21;16.90;99.90
53264;DHT22;39153;52.680;6.172;2022-09-09T08:38:49;17.00;99.90
53264;DHT22;39153;52.680;6.172;2022-09-09T08:52:28;17.10;99.90
53264;DHT22;39153;52.680;6.172;2022-09-09T08:57:43;17.20;99.90
53264;DHT22;39153;52.680;6.172;2022-09-09T09:00:11;17.10;99.90
53264;DHT22;39153;52.680;6.172;2022-09-09T09:03:19;17.10;99.90
53264;DHT22;39153;52.680;6.172;2022-09-09T09:05:49;17.30;99.90
53264;DHT22;39153;52.680;6.172;2022-09-09T09:08:26;17.10;99.90
53264;DHT22;39153;52.680;6.172;2022-09-09T09:10:57;17.20;99.90
53264;DHT22;39153;52.680;6.172;2022-09-09T09:16:23;17.20;99.90
53264;DHT22;39153;52.680;6.172;2022-09-09T09:18:51;17.30;99.90
53264;DHT22;39153;52.680;6.172;2022-09-09T09:21:34;17.30;99.90
53264;DHT22;39153;52.680;6.172;2022-09-09T09:24:01;17.40;99.90
53264;DHT22;39153;52.680;6.172;2022-09-09T09:26:31;17.30;99.90
53264;DHT22;39153;52.680;6.172;2022-09-09T09:28:59;17.40;99.90
53264;DHT22;39153;52.680;6.172;2022-09-09T09:31:25;17.70;99.90
53264;DHT22;39153;52.680;6.172;2022-09-09T09:33:55;18.00;99.90
53264;DHT22;39153;52.680;6.172;2022-09-09T09:36:43;18.10;99.90
53264;DHT22;39153;52.680;6.172;2022-09-09T09:39:28;18.10;99.90
53264;DHT22;39153;52.680;6.172;2022-09-09T09:41:54;17.90;99.90
53264;DHT22;39153;52.680;6.172;2022-09-09T09:44:25;17.90;99.90
53264;DHT22;39153;52.680;6.172;2022-09-09T09:46:51;17.90;99.90
53264;DHT22;39153;52.680;6.172;2022-09-09T09:49:17;17.90;99.90
53264;DHT22;39153;52.680;6.172;2022-09-09T09:51:43;17.90;99.90
53264;DHT22;39153;52.680;6.172;2022-09-09T09:54:29;17.80;99.90
53264;DHT22;39153;52.680;6.172;2022-09-09T09:56:55;17.80;99.90
53264;DHT22;39153;52.680;6.172;2022-09-09T10:01:53;17.80;99.90
53264;DHT22;39153;52.680;6.172;2022-09-09T10:04:21;17.80;99.90
53264;DHT22;39153;52.680;6.172;2022-09-09T10:06:50;17.80;99.90
53264;DHT22;39153;52.680;6.172;2022-09-09T10:14:40;17.70;99.90
53264;DHT22;39153;52.680;6.172;2022-09-09T10:28:50;17.70;99.90
53264;DHT22;39153;52.680;6.172;2022-09-09T10:31:29;17.70;99.90
53264;DHT22;39153;52.680;6.172;2022-09-09T10:36:44;17.70;99.90
53264;DHT22;39153;52.680;6.172;2022-09-09T10:39:21;17.70;99.90
53264;DHT22;39153;52.680;6.172;2022-09-09T10:42:09;17.80;99.90
53264;DHT22;39153;52.680;6.172;2022-09-09T10:53:33;17.70;99.90
53264;DHT22;39153;52.680;6.172;2022-09-09T10:55:42;17.80;99.90
53264;DHT22;39153;52.680;6.172;2022-09-09T10:58:17;17.70;99.90
53264;DHT22;39153;52.680;6.172;2022-09-09T11:00:57;17.80;99.90
53264;DHT22;39153;52.680;6.172;2022-09-09T11:03:29;17.80;99.90
53264;DHT22;39153;52.680;6.172;2022-09-09T11:06:04;18.00;99.90
53264;DHT22;39153;52.680;6.172;2022-09-09T11:08:32;17.90;99.90
53264;DHT22;39153;52.680;6.172;2022-09-09T11:13:49;18.20;99.90
53264;DHT22;39153;52.680;6.172;2022-09-09T11:16:39;18.40;99.90
53264;DHT22;39153;52.680;6.172;2022-09-09T11:19:36;18.40;99.90
53264;DHT22;39153;52.680;6.172;2022-09-09T11:24:44;18.50;99.90
53264;DHT22;39153;52.680;6.172;2022-09-09T11:27:37;18.80;99.90
53264;DHT22;39153;52.680;6.172;2022-09-09T11:30:15;19.10;99.90
53264;DHT22;39153;52.680;6.172;2022-09-09T11:38:33;19.70;99.90
53264;DHT22;39153;52.680;6.172;2022-09-09T11:41:06;19.60;99.90
53264;DHT22;39153;52.680;6.172;2022-09-09T11:44:08;19.60;99.90
53264;DHT22;39153;52.680;6.172;2022-09-09T11:46:36;19.40;99.90
53264;DHT22;39153;52.680;6.172;2022-09-09T11:49:05;19.30;99.90
53264;DHT22;39153;52.680;6.172;2022-09-09T11:51:33;19.20;99.90
53264;DHT22;39153;52.680;6.172;2022-09-09T11:54:02;19.10;99.90
53264;DHT22;39153;52.680;6.172;2022-09-09T11:56:48;19.00;99.90
53264;DHT22;39153;52.680;6.172;2022-09-09T11:59:50;18.90;99.90
53264;DHT22;39153;52.680;6.172;2022-09-09T12:02:23;18.80;99.90
53264;DHT22;39153;52.680;6.172;2022-09-09T12:04:54;18.70;99.90
53264;DHT22;39153;52.680;6.172;2022-09-09T12:07:33;18.50;99.90
53264;DHT22;39153;52.680;6.172;2022-09-09T12:12:43;18.90;99.90
53264;DHT22;39153;52.680;6.172;2022-09-09T12:17:49;20.00;99.90
53264;DHT22;39153;52.680;6.172;2022-09-09T12:28:18;19.80;99.90
53264;DHT22;39153;52.680;6.172;2022-09-09T12:33:16;19.70;99.90
53264;DHT22;39153;52.680;6.172;2022-09-09T12:35:44;19.90;99.90
53264;DHT22;39153;52.680;6.172;2022-09-09T12:38:22;19.70;99.90
53264;DHT22;39153;52.680;6.172;2022-09-09T12:40:55;19.70;99.90
53264;DHT22;39153;52.680;6.172;2022-09-09T12:43:23;19.50;99.90
53264;DHT22;39153;52.680;6.172;2022-09-09T12:45:52;19.20;99.90
53264;DHT22;39153;52.680;6.172;2022-09-09T12:48:35;18.90;99.90
53264;DHT22;39153;52.680;6.172;2022-09-09T12:51:02;18.80;99.90
53264;DHT22;39153;52.680;6.172;2022-09-09T12:53:36;18.90;99.90
53264;DHT22;39153;52.680;6.172;2022-09-09T12:56:06;19.30;99.90
53264;DHT22;39153;52.680;6.172;2022-09-09T12:58:35;19.10;99.90
53264;DHT22;39153;52.680;6.172;2022-09-09T13:01:02;19.00;99.90
53264;DHT22;39153;52.680;6.172;2022-09-09T13:03:33;19.10;99.90
53264;DHT22;39153;52.680;6.172;2022-09-09T13:08:45;18.70;99.90
53264;DHT22;39153;52.680;6.172;2022-09-09T13:11:36;18.40;99.90
53264;DHT22;39153;52.680;6.172;2022-09-09T13:14:04;18.50;99.90
53264;DHT22;39153;52.680;6.172;2022-09-09T13:16:34;19.10;99.90
53264;DHT22;39153;52.680;6.172;2022-09-09T13:19:06;19.30;99.90
53264;DHT22;39153;52.680;6.172;2022-09-09T13:21:37;19.80;99.90
53264;DHT22;39153;52.680;6.172;2022-09-09T13:24:57;20.40;99.90
53264;DHT22;39153;52.680;6.172;2022-09-09T13:27:03;20.40;99.90
53264;DHT22;39153;52.680;6.172;2022-09-09T13:29:30;20.20;99.90
53264;DHT22;39153;52.680;6.172;2022-09-09T13:32:12;19.90;99.90
53264;DHT22;39153;52.680;6.172;2022-09-09T13:34:51;19.70;99.90
53264;DHT22;39153;52.680;6.172;2022-09-09T13:37:32;19.60;99.90
53264;DHT22;39153;52.680;6.172;2022-09-09T13:39:59;19.50;99.90
53264;DHT22;39153;52.680;6.172;2022-09-09T13:42:28;19.80;99.90
53264;DHT22;39153;52.680;6.172;2022-09-09T13:44:55;19.80;99.90
53264;DHT22;39153;52.680;6.172;2022-09-09T13:47:35;20.00;99.90
53264;DHT22;39153;52.680;6.172;2022-09-09T13:50:20;20.70;99.90
53264;DHT22;39153;52.680;6.172;2022-09-09T13:52:47;20.70;99.90
53264;DHT22;39153;52.680;6.172;2022-09-09T13:55:14;20.50;99.90
53264;DHT22;39153;52.680;6.172;2022-09-09T13:57:53;20.70;99.90
53264;DHT22;39153;52.680;6.172;2022-09-09T14:00:19;20.90;99.90
53264;DHT22;39153;52.680;6.172;2022-09-09T14:02:46;20.90;99.90
53264;DHT22;39153;52.680;6.172;2022-09-09T14:05:12;20.60;99.90
53264;DHT22;39153;52.680;6.172;2022-09-09T14:07:39;20.50;99.90
53264;DHT22;39153;52.680;6.172;2022-09-09T14:10:06;20.30;99.90
53264;DHT22;39153;52.680;6.172;2022-09-09T14:12:32;20.00;99.90
53264;DHT22;39153;52.680;6.172;2022-09-09T14:14:58;19.90;99.90
53264;DHT22;39153;52.680;6.172;2022-09-09T14:17:25;19.90;99.90
53264;DHT22;39153;52.680;6.172;2022-09-09T14:19:54;19.80;99.90
53264;DHT22;39153;52.680;6.172;2022-09-09T14:22:21;19.70;99.90
53264;DHT22;39153;52.680;6.172;2022-09-09T14:24:47;19.50;99.90
53264;DHT22;39153;52.680;6.172;2022-09-09T14:27:13;19.40;99.90
53264;DHT22;39153;52.680;6.172;2022-09-09T14:29:38;19.40;99.90
53264;DHT22;39153;52.680;6.172;2022-09-09T14:32:04;19.70;99.90
53264;DHT22;39153;52.680;6.172;2022-09-09T14:34:30;19.80;99.90
53264;DHT22;39153;52.680;6.172;2022-09-09T14:36:58;19.70;99.90
53264;DHT22;39153;52.680;6.172;2022-09-09T14:39:23;19.60;99.90
53264;DHT22;39153;52.680;6.172;2022-09-09T14:41:49;19.60;99.90
53264;DHT22;39153;52.680;6.172;2022-09-09T14:44:15;19.90;99.90
53264;DHT22;39153;52.680;6.172;2022-09-09T14:46:41;19.90;99.90
53264;DHT22;39153;52.680;6.172;2022-09-09T14:49:08;19.80;99.90
53264;DHT22;39153;52.680;6.172;2022-09-09T14:51:35;19.80;99.90
53264;DHT22;39153;52.680;6.172;2022-09-09T14:54:01;19.90;99.90
53264;DHT22;39153;52.680;6.172;2022-09-09T14:56:30;19.80;99.90
53264;DHT22;39153;52.680;6.172;2022-09-09T14:58:57;19.80;99.90
53264;DHT22;39153;52.680;6.172;2022-09-09T15:01:24;19.80;99.90
53264;DHT22;39153;52.680;6.172;2022-09-09T15:03:57;19.70;99.90
53264;DHT22;39153;52.680;6.172;2022-09-09T15:06:24;19.80;99.90
53264;DHT22;39153;52.680;6.172;2022-09-09T15:08:52;19.70;99.90
53264;DHT22;39153;52.680;6.172;2022-09-09T15:11:18;19.70;99.90
53264;DHT22;39153;52.680;6.172;2022-09-09T15:13:45;19.80;99.90
53264;DHT22;39153;52.680;6.172;2022-09-09T15:16:17;19.90;99.90
53264;DHT22;39153;52.680;6.172;2022-09-09T15:18:43;19.80;99.90
53264;DHT22;39153;52.680;6.172;2022-09-09T15:21:16;19.80;99.90
53264;DHT22;39153;52.680;6.172;2022-09-09T15:23:42;19.70;99.90
53264;DHT22;39153;52.680;6.172;2022-09-09T15:26:09;19.60;99.90
53264;DHT22;39153;52.680;6.172;2022-09-09T15:28:37;19.50;99.90
53264;DHT22;39153;52.680;6.172;2022-09-09T15:31:09;19.80;99.90
53264;DHT22;39153;52.680;6.172;2022-09-09T15:33:36;20.00;99.90
53264;DHT22;39153;52.680;6.172;2022-09-09T15:36:22;20.30;99.90
53264;DHT22;39153;52.680;6.172;2022-09-09T15:38:49;20.20;99.90
53264;DHT22;39153;52.680;6.172;2022-09-09T15:41:15;20.20;99.90
53264;DHT22;39153;52.680;6.172;2022-09-09T15:43:46;20.00;99.90
53264;DHT22;39153;52.680;6.172;2022-09-09T15:46:25;19.80;99.90
53264;DHT22;39153;52.680;6.172;2022-09-09T15:48:56;19.70;99.90
53264;DHT22;39153;52.680;6.172;2022-09-09T15:51:22;19.60;99.90
53264;DHT22;39153;52.680;6.172;2022-09-09T15:53:52;19.50;99.90
53264;DHT22;39153;52.680;6.172;2022-09-09T15:56:19;19.60;99.90
53264;DHT22;39153;52.680;6.172;2022-09-09T15:58:44;19.60;99.90
53264;DHT22;39153;52.680;6.172;2022-09-09T16:01:11;19.70;99.90
53264;DHT22;39153;52.680;6.172;2022-09-09T16:03:42;19.60;99.90
53264;DHT22;39153;52.680;6.172;2022-09-09T16:06:09;19.60;99.90
53264;DHT22;39153;52.680;6.172;2022-09-09T16:08:36;19.50;99.90
53264;DHT22;39153;52.680;6.172;2022-09-09T16:11:22;19.40;99.90
53264;DHT22;39153;52.680;6.172;2022-09-09T16:13:49;19.40;99.90
53264;DHT22;39153;52.680;6.172;2022-09-09T16:16:17;19.40;99.90
53264;DHT22;39153;52.680;6.172;2022-09-09T16:18:47;19.40;99.90
53264;DHT22;39153;52.680;6.172;2022-09-09T16:21:41;19.20;99.90
53264;DHT22;39153;52.680;6.172;2022-09-09T16:24:09;19.30;99.90
53264;DHT22;39153;52.680;6.172;2022-09-09T16:26:36;19.20;99.90
53264;DHT22;39153;52.680;6.172;2022-09-09T16:29:03;19.20;99.90
53264;DHT22;39153;52.680;6.172;2022-09-09T16:31:29;19.20;99.90
53264;DHT22;39153;52.680;6.172;2022-09-09T16:33:56;19.20;99.90
53264;DHT22;39153;52.680;6.172;2022-09-09T16:36:24;19.20;99.90
53264;DHT22;39153;52.680;6.172;2022-09-09T16:39:04;19.20;99.90
53264;DHT22;39153;52.680;6.172;2022-09-09T16:41:31;19.10;99.90
53264;DHT22;39153;52.680;6.172;2022-09-09T16:44:02;19.00;99.90
53264;DHT22;39153;52.680;6.172;2022-09-09T16:46:30;19.10;99.90
53264;DHT22;39153;52.680;6.172;2022-09-09T16:48:57;18.90;99.90
53264;DHT22;39153;52.680;6.172;2022-09-09T16:51:28;18.90;99.90
53264;DHT22;39153;52.680;6.172;2022-09-09T16:53:55;18.90;99.90
53264;DHT22;39153;52.680;6.172;2022-09-09T16:56:23;19.00;99.90
53264;DHT22;39153;52.680;6.172;2022-09-09T16:58:58;18.90;99.90
53264;DHT22;39153;52.680;6.172;2022-09-09T17:01:30;18.80;99.90
53264;DHT22;39153;52.680;6.172;2022-09-09T17:03:58;18.80;99.90
53264;DHT22;39153;52.680;6.172;2022-09-09T17:06:26;18.80;99.90
53264;DHT22;39153;52.680;6.172;2022-09-09T17:09:00;18.80;99.90
53264;DHT22;39153;52.680;6.172;2022-09-09T17:11:27;18.70;99.90
53264;DHT22;39153;52.680;6.172;2022-09-09T17:13:54;18.80;99.90
53264;DHT22;39153;52.680;6.172;2022-09-09T17:16:22;18.70;99.90
53264;DHT22;39153;52.680;6.172;2022-09-09T17:18:48;18.60;99.90
53264;DHT22;39153;52.680;6.172;2022-09-09T17:21:16;18.50;99.90
53264;DHT22;39153;52.680;6.172;2022-09-09T17:23:44;18.60;99.90
53264;DHT22;39153;52.680;6.172;2022-09-09T17:26:12;18.50;99.90
53264;DHT22;39153;52.680;6.172;2022-09-09T17:28:40;18.50;99.90
53264;DHT22;39153;52.680;6.172;2022-09-09T17:31:07;18.40;99.90
53264;DHT22;39153;52.680;6.172;2022-09-09T17:33:36;18.30;99.90
53264;DHT22;39153;52.680;6.172;2022-09-09T17:36:08;18.30;99.90
53264;DHT22;39153;52.680;6.172;2022-09-09T17:38:34;18.30;99.90
53264;DHT22;39153;52.680;6.172;2022-09-09T17:41:05;18.20;99.90